sensor_id;sensor_type;location;lat;lon;timestamp;temperature;humidity
68648;SHT31;55632;51.962;16.116;2022-12-29T00:02:26;7.23;80.95
68648;SHT31;55632;51.962;16.116;2022-12-29T00:07:30;7.19;80.99
68648;SHT31;55632;51.962;16.116;2022-12-29T00:12:31;7.18;81.06
68648;SHT31;55632;51.962;16.116;2022-12-29T00:17:52;7.11;81.14
68648;SHT31;55632;51.962;16.116;2022-12-29T00:22:53;7.11;81.16
68648;SHT31;55632;51.962;16.116;2022-12-29T00:28:29;7.12;81.17
68648;SHT31;55632;51.962;16.116;2022-12-29T00:33:48;7.11;81.17
68648;SHT31;55632;51.962;16.116;2022-12-29T00:39:15;7.15;81.19
68648;SHT31;55632;51.962;16.116;2022-12-29T00:44:34;7.16;81.19
68648;SHT31;55632;51.962;16.116;2022-12-29T00:49:35;7.16;81.22
68648;SHT31;55632;51.962;16.116;2022-12-29T00:54:38;7.18;81.24
68648;SHT31;55632;51.962;16.116;2022-12-29T00:59:41;7.21;81.15
68648;SHT31;55632;51.962;16.116;2022-12-29T01:04:42;7.18;81.14
68648;SHT31;55632;51.962;16.116;2022-12-29T01:09:43;7.16;81.07
68648;SHT31;55632;51.962;16.116;2022-12-29T01:15:02;7.18;81.04
68648;SHT31;55632;51.962;16.116;2022-12-29T01:20:03;7.16;81.03
68648;SHT31;55632;51.962;16.116;2022-12-29T01:25:05;7.16;81.00
68648;SHT31;55632;51.962;16.116;2022-12-29T01:30:07;7.15;81.01
68648;SHT31;55632;51.962;16.116;2022-12-29T01:35:08;7.15;80.99
68648;SHT31;55632;51.962;16.116;2022-12-29T01:40:09;7.14;81.08
68648;SHT31;55632;51.962;16.116;2022-12-29T01:45:16;7.14;81.10
68648;SHT31;55632;51.962;16.116;2022-12-29T01:50:31;7.08;81.06
68648;SHT31;55632;51.962;16.116;2022-12-29T01:55:37;7.05;81.09
68648;SHT31;55632;51.962;16.116;2022-12-29T02:00:38;7.01;81.20
68648;SHT31;55632;51.962;16.116;2022-12-29T02:05:51;7.04;81.27
68648;SHT31;55632;51.962;16.116;2022-12-29T02:10:56;7.03;81.48
68648;SHT31;55632;51.962;16.116;2022-12-29T02:43:42;6.75;83.40
68648;SHT31;55632;51.962;16.116;2022-12-29T02:48:51;6.72;83.57
68648;SHT31;55632;51.962;16.116;2022-12-29T02:53:54;6.69;83.75
68648;SHT31;55632;51.962;16.116;2022-12-29T02:59:14;6.69;83.92
68648;SHT31;55632;51.962;16.116;2022-12-29T03:04:25;6.72;83.90
68648;SHT31;55632;51.962;16.116;2022-12-29T03:15:02;6.80;83.90
68648;SHT31;55632;51.962;16.116;2022-12-29T03:20:44;6.83;83.79
68648;SHT31;55632;51.962;16.116;2022-12-29T03:25:49;6.88;83.63
68648;SHT31;55632;51.962;16.116;2022-12-29T03:30:55;6.94;83.50
68648;SHT31;55632;51.962;16.116;2022-12-29T03:36:01;7.00;83.23
68648;SHT31;55632;51.962;16.116;2022-12-29T03:41:07;7.03;83.07
68648;SHT31;55632;51.962;16.116;2022-12-29T03:46:11;7.05;82.95
68648;SHT31;55632;51.962;16.116;2022-12-29T03:51:15;7.07;82.92
68648;SHT31;55632;51.962;16.116;2022-12-29T03:56:16;7.11;82.76
68648;SHT31;55632;51.962;16.116;2022-12-29T04:01:17;7.15;82.72
68648;SHT31;55632;51.962;16.116;2022-12-29T04:06:18;7.22;82.54
68648;SHT31;55632;51.962;16.116;2022-12-29T04:11:27;7.29;82.43
68648;SHT31;55632;51.962;16.116;2022-12-29T04:16:28;7.36;82.24
68648;SHT31;55632;51.962;16.116;2022-12-29T04:21:29;7.45;81.92
68648;SHT31;55632;51.962;16.116;2022-12-29T04:26:30;7.53;81.85
68648;SHT31;55632;51.962;16.116;2022-12-29T04:31:48;7.59;81.85
68648;SHT31;55632;51.962;16.116;2022-12-29T04:36:53;7.64;81.68
68648;SHT31;55632;51.962;16.116;2022-12-29T04:41:54;7.70;81.53
68648;SHT31;55632;51.962;16.116;2022-12-29T04:46:56;7.78;81.42
68648;SHT31;55632;51.962;16.116;2022-12-29T04:52:25;7.90;81.20
68648;SHT31;55632;51.962;16.116;2022-12-29T04:57:27;7.94;81.05
68648;SHT31;55632;51.962;16.116;2022-12-29T05:02:31;8.02;80.95
68648;SHT31;55632;51.962;16.116;2022-12-29T05:07:32;8.08;80.77
68648;SHT31;55632;51.962;16.116;2022-12-29T05:12:35;8.12;80.62
68648;SHT31;55632;51.962;16.116;2022-12-29T05:17:37;8.21;80.40
68648;SHT31;55632;51.962;16.116;2022-12-29T05:22:38;8.22;80.28
68648;SHT31;55632;51.962;16.116;2022-12-29T05:27:40;8.28;80.18
68648;SHT31;55632;51.962;16.116;2022-12-29T05:32:51;8.33;79.98
68648;SHT31;55632;51.962;16.116;2022-12-29T05:37:53;8.37;79.76
68648;SHT31;55632;51.962;16.116;2022-12-29T05:42:54;8.40;79.62
68648;SHT31;55632;51.962;16.116;2022-12-29T05:48:07;8.46;79.60
68648;SHT31;55632;51.962;16.116;2022-12-29T05:53:41;8.44;79.47
68648;SHT31;55632;51.962;16.116;2022-12-29T05:58:42;8.52;79.34
68648;SHT31;55632;51.962;16.116;2022-12-29T06:03:45;8.50;79.21
68648;SHT31;55632;51.962;16.116;2022-12-29T06:08:46;8.53;79.09
68648;SHT31;55632;51.962;16.116;2022-12-29T06:13:48;8.60;78.65
68648;SHT31;55632;51.962;16.116;2022-12-29T06:18:50;8.59;78.68
68648;SHT31;55632;51.962;16.116;2022-12-29T06:23:51;8.60;78.56
68648;SHT31;55632;51.962;16.116;2022-12-29T06:28:52;8.63;78.41
68648;SHT31;55632;51.962;16.116;2022-12-29T06:33:52;8.64;78.43
68648;SHT31;55632;51.962;16.116;2022-12-29T06:38:53;8.64;78.38
68648;SHT31;55632;51.962;16.116;2022-12-29T06:43:57;8.65;78.24
68648;SHT31;55632;51.962;16.116;2022-12-29T06:49:18;8.67;78.12
68648;SHT31;55632;51.962;16.116;2022-12-29T06:54:19;8.67;77.77
68648;SHT31;55632;51.962;16.116;2022-12-29T06:59:19;8.71;77.70
68648;SHT31;55632;51.962;16.116;2022-12-29T07:04:20;8.74;77.70
68648;SHT31;55632;51.962;16.116;2022-12-29T07:09:21;8.74;77.69
68648;SHT31;55632;51.962;16.116;2022-12-29T07:14:22;8.79;77.70
68648;SHT31;55632;51.962;16.116;2022-12-29T07:19:23;8.79;77.80
68648;SHT31;55632;51.962;16.116;2022-12-29T07:24:23;8.82;77.76
68648;SHT31;55632;51.962;16.116;2022-12-29T07:29:26;8.87;77.78
68648;SHT31;55632;51.962;16.116;2022-12-29T07:34:26;8.89;77.75
68648;SHT31;55632;51.962;16.116;2022-12-29T07:39:27;8.95;77.79
68648;SHT31;55632;51.962;16.116;2022-12-29T07:44:28;8.98;77.81
68648;SHT31;55632;51.962;16.116;2022-12-29T07:49:47;9.02;77.69
68648;SHT31;55632;51.962;16.116;2022-12-29T07:54:48;9.04;77.55
68648;SHT31;55632;51.962;16.116;2022-12-29T07:59:49;9.04;77.42
68648;SHT31;55632;51.962;16.116;2022-12-29T08:04:50;9.05;77.51
68648;SHT31;55632;51.962;16.116;2022-12-29T08:09:51;9.06;77.48
68648;SHT31;55632;51.962;16.116;2022-12-29T08:14:51;9.08;77.48
68648;SHT31;55632;51.962;16.116;2022-12-29T08:19:52;9.09;77.56
68648;SHT31;55632;51.962;16.116;2022-12-29T08:24:53;9.12;77.65
68648;SHT31;55632;51.962;16.116;2022-12-29T08:29:54;9.13;77.69
68648;SHT31;55632;51.962;16.116;2022-12-29T08:34:54;9.16;77.73
68648;SHT31;55632;51.962;16.116;2022-12-29T08:39:58;9.16;77.74
68648;SHT31;55632;51.962;16.116;2022-12-29T08:45:01;9.22;77.71
68648;SHT31;55632;51.962;16.116;2022-12-29T08:50:03;9.26;77.51
68648;SHT31;55632;51.962;16.116;2022-12-29T08:55:04;9.26;77.32
68648;SHT31;55632;51.962;16.116;2022-12-29T09:00:06;9.27;77.07
68648;SHT31;55632;51.962;16.116;2022-12-29T09:05:07;9.26;77.04
68648;SHT31;55632;51.962;16.116;2022-12-29T09:10:08;9.29;77.20
68648;SHT31;55632;51.962;16.116;2022-12-29T09:15:09;9.32;76.92
68648;SHT31;55632;51.962;16.116;2022-12-29T09:20:13;9.37;76.74
68648;SHT31;55632;51.962;16.116;2022-12-29T09:25:14;9.41;76.77
68648;SHT31;55632;51.962;16.116;2022-12-29T09:30:16;9.44;76.70
68648;SHT31;55632;51.962;16.116;2022-12-29T09:35:17;9.51;76.62
68648;SHT31;55632;51.962;16.116;2022-12-29T09:40:27;9.59;76.50
68648;SHT31;55632;51.962;16.116;2022-12-29T09:45:42;9.70;76.63
68648;SHT31;55632;51.962;16.116;2022-12-29T09:50:48;9.78;76.48
68648;SHT31;55632;51.962;16.116;2022-12-29T09:55:53;9.84;76.47
68648;SHT31;55632;51.962;16.116;2022-12-29T10:06:41;9.98;75.88
68648;SHT31;55632;51.962;16.116;2022-12-29T10:17:04;10.13;75.73
68648;SHT31;55632;51.962;16.116;2022-12-29T10:22:23;10.20;75.64
68648;SHT31;55632;51.962;16.116;2022-12-29T10:27:25;10.24;75.48
68648;SHT31;55632;51.962;16.116;2022-12-29T10:32:42;10.34;75.16
68648;SHT31;55632;51.962;16.116;2022-12-29T10:37:52;10.45;75.02
68648;SHT31;55632;51.962;16.116;2022-12-29T10:42:56;10.54;74.78
68648;SHT31;55632;51.962;16.116;2022-12-29T10:48:13;10.61;74.44
68648;SHT31;55632;51.962;16.116;2022-12-29T10:53:21;10.69;74.40
68648;SHT31;55632;51.962;16.116;2022-12-29T10:58:24;10.75;74.26
68648;SHT31;55632;51.962;16.116;2022-12-29T11:03:48;10.85;74.30
68648;SHT31;55632;51.962;16.116;2022-12-29T11:08:56;10.95;73.66
68648;SHT31;55632;51.962;16.116;2022-12-29T11:19:23;11.07;73.34
68648;SHT31;55632;51.962;16.116;2022-12-29T11:24:28;11.13;72.60
68648;SHT31;55632;51.962;16.116;2022-12-29T11:29:38;11.20;72.18
68648;SHT31;55632;51.962;16.116;2022-12-29T11:34:39;11.24;72.22
68648;SHT31;55632;51.962;16.116;2022-12-29T11:45:05;11.37;71.54
68648;SHT31;55632;51.962;16.116;2022-12-29T11:50:07;11.40;71.17
68648;SHT31;55632;51.962;16.116;2022-12-29T11:55:19;11.41;70.94
68648;SHT31;55632;51.962;16.116;2022-12-29T12:00:24;11.48;71.14
68648;SHT31;55632;51.962;16.116;2022-12-29T12:05:55;11.52;71.00
68648;SHT31;55632;51.962;16.116;2022-12-29T12:16:18;11.57;70.50
68648;SHT31;55632;51.962;16.116;2022-12-29T12:21:29;11.58;70.39
68648;SHT31;55632;51.962;16.116;2022-12-29T12:32:03;11.61;69.82
68648;SHT31;55632;51.962;16.116;2022-12-29T12:42:48;11.62;69.98
68648;SHT31;55632;51.962;16.116;2022-12-29T12:53:54;11.64;69.82
68648;SHT31;55632;51.962;16.116;2022-12-29T13:15:49;11.69;69.68
68648;SHT31;55632;51.962;16.116;2022-12-29T13:21:06;11.72;69.23
68648;SHT31;55632;51.962;16.116;2022-12-29T13:26:32;11.69;68.97
68648;SHT31;55632;51.962;16.116;2022-12-29T13:31:42;11.76;68.90
68648;SHT31;55632;51.962;16.116;2022-12-29T13:36:50;11.76;68.85
68648;SHT31;55632;51.962;16.116;2022-12-29T13:41:55;11.78;68.97
68648;SHT31;55632;51.962;16.116;2022-12-29T13:46:58;11.74;69.04
68648;SHT31;55632;51.962;16.116;2022-12-29T14:08:19;11.47;69.95
68648;SHT31;55632;51.962;16.116;2022-12-29T14:13:22;11.40;70.18
68648;SHT31;55632;51.962;16.116;2022-12-29T14:18:28;11.35;70.23
68648;SHT31;55632;51.962;16.116;2022-12-29T14:23:41;11.31;70.26
68648;SHT31;55632;51.962;16.116;2022-12-29T14:28:47;11.24;70.37
68648;SHT31;55632;51.962;16.116;2022-12-29T14:44:30;11.07;70.68
68648;SHT31;55632;51.962;16.116;2022-12-29T14:49:39;11.00;70.67
68648;SHT31;55632;51.962;16.116;2022-12-29T14:54:44;10.95;70.62
68648;SHT31;55632;51.962;16.116;2022-12-29T14:59:46;10.86;70.80
68648;SHT31;55632;51.962;16.116;2022-12-29T15:04:48;10.79;70.99
68648;SHT31;55632;51.962;16.116;2022-12-29T15:09:58;10.72;71.17
68648;SHT31;55632;51.962;16.116;2022-12-29T15:25:25;10.50;71.36
68648;SHT31;55632;51.962;16.116;2022-12-29T15:30:26;10.45;71.39
68648;SHT31;55632;51.962;16.116;2022-12-29T15:35:33;10.43;71.48
68648;SHT31;55632;51.962;16.116;2022-12-29T15:40:35;10.40;71.60
68648;SHT31;55632;51.962;16.116;2022-12-29T15:45:36;10.32;71.74
68648;SHT31;55632;51.962;16.116;2022-12-29T15:50:37;10.30;71.91
68648;SHT31;55632;51.962;16.116;2022-12-29T15:55:41;10.23;71.94
68648;SHT31;55632;51.962;16.116;2022-12-29T16:00:50;10.20;72.05
68648;SHT31;55632;51.962;16.116;2022-12-29T16:05:56;10.21;72.08
68648;SHT31;55632;51.962;16.116;2022-12-29T16:10:57;10.24;72.06
68648;SHT31;55632;51.962;16.116;2022-12-29T16:16:13;10.24;72.01
68648;SHT31;55632;51.962;16.116;2022-12-29T16:21:20;10.24;71.97
68648;SHT31;55632;51.962;16.116;2022-12-29T16:26:23;10.20;71.96
68648;SHT31;55632;51.962;16.116;2022-12-29T16:31:35;10.21;72.00
68648;SHT31;55632;51.962;16.116;2022-12-29T16:36:52;10.17;72.05
68648;SHT31;55632;51.962;16.116;2022-12-29T16:41:54;10.13;72.19
68648;SHT31;55632;51.962;16.116;2022-12-29T16:52:18;10.08;72.28
68648;SHT31;55632;51.962;16.116;2022-12-29T16:57:25;10.05;72.29
68648;SHT31;55632;51.962;16.116;2022-12-29T17:02:34;10.02;72.36
68648;SHT31;55632;51.962;16.116;2022-12-29T17:07:45;10.09;72.36
68648;SHT31;55632;51.962;16.116;2022-12-29T17:12:49;10.08;72.45
68648;SHT31;55632;51.962;16.116;2022-12-29T17:17:53;10.09;72.37
68648;SHT31;55632;51.962;16.116;2022-12-29T17:22:58;10.06;72.47
68648;SHT31;55632;51.962;16.116;2022-12-29T17:28:26;10.08;72.46
68648;SHT31;55632;51.962;16.116;2022-12-29T17:33:26;10.10;72.52
68648;SHT31;55632;51.962;16.116;2022-12-29T17:38:34;10.08;72.53
68648;SHT31;55632;51.962;16.116;2022-12-29T17:43:39;10.06;72.61
68648;SHT31;55632;51.962;16.116;2022-12-29T17:48:40;10.03;72.68
68648;SHT31;55632;51.962;16.116;2022-12-29T17:53:41;10.02;72.75
68648;SHT31;55632;51.962;16.116;2022-12-29T17:58:45;9.98;72.83
68648;SHT31;55632;51.962;16.116;2022-12-29T18:03:49;9.92;72.94
68648;SHT31;55632;51.962;16.116;2022-12-29T18:08:57;9.88;73.06
68648;SHT31;55632;51.962;16.116;2022-12-29T18:13:58;9.85;73.21
68648;SHT31;55632;51.962;16.116;2022-12-29T18:18:59;9.84;73.28
68648;SHT31;55632;51.962;16.116;2022-12-29T18:23:59;9.82;73.39
68648;SHT31;55632;51.962;16.116;2022-12-29T18:29:00;9.79;73.51
68648;SHT31;55632;51.962;16.116;2022-12-29T18:34:06;9.77;73.56
68648;SHT31;55632;51.962;16.116;2022-12-29T18:39:11;9.73;73.70
68648;SHT31;55632;51.962;16.116;2022-12-29T18:44:12;9.74;73.79
68648;SHT31;55632;51.962;16.116;2022-12-29T18:49:13;9.78;73.78
68648;SHT31;55632;51.962;16.116;2022-12-29T18:54:26;9.75;73.72
68648;SHT31;55632;51.962;16.116;2022-12-29T18:59:27;9.71;73.84
68648;SHT31;55632;51.962;16.116;2022-12-29T19:04:32;9.67;73.99
68648;SHT31;55632;51.962;16.116;2022-12-29T19:09:33;9.62;74.05
68648;SHT31;55632;51.962;16.116;2022-12-29T19:14:33;9.58;74.17
68648;SHT31;55632;51.962;16.116;2022-12-29T19:19:34;9.52;74.34
68648;SHT31;55632;51.962;16.116;2022-12-29T19:24:35;9.47;74.53
68648;SHT31;55632;51.962;16.116;2022-12-29T19:29:38;9.40;74.67
68648;SHT31;55632;51.962;16.116;2022-12-29T19:34:39;9.36;74.88
68648;SHT31;55632;51.962;16.116;2022-12-29T19:39:40;9.33;75.05
68648;SHT31;55632;51.962;16.116;2022-12-29T19:44:41;9.29;75.11
68648;SHT31;55632;51.962;16.116;2022-12-29T19:49:42;9.24;75.23
68648;SHT31;55632;51.962;16.116;2022-12-29T19:54:43;9.19;75.39
68648;SHT31;55632;51.962;16.116;2022-12-29T19:59:44;9.18;75.49
68648;SHT31;55632;51.962;16.116;2022-12-29T20:04:48;9.11;75.59
68648;SHT31;55632;51.962;16.116;2022-12-29T20:09:49;9.05;75.74
68648;SHT31;55632;51.962;16.116;2022-12-29T20:14:50;9.01;75.81
68648;SHT31;55632;51.962;16.116;2022-12-29T20:19:51;8.95;75.94
68648;SHT31;55632;51.962;16.116;2022-12-29T20:24:52;8.79;76.15
68648;SHT31;55632;51.962;16.116;2022-12-29T20:29:54;8.67;76.38
68648;SHT31;55632;51.962;16.116;2022-12-29T20:34:55;8.57;76.80
68648;SHT31;55632;51.962;16.116;2022-12-29T20:39:56;8.63;77.09
68648;SHT31;55632;51.962;16.116;2022-12-29T20:44:57;8.64;77.23
68648;SHT31;55632;51.962;16.116;2022-12-29T20:49:58;8.70;77.33
68648;SHT31;55632;51.962;16.116;2022-12-29T20:55:05;8.74;77.39
68648;SHT31;55632;51.962;16.116;2022-12-29T21:00:06;8.77;77.42
68648;SHT31;55632;51.962;16.116;2022-12-29T21:05:09;8.81;77.49
68648;SHT31;55632;51.962;16.116;2022-12-29T21:10:14;8.79;77.46
68648;SHT31;55632;51.962;16.116;2022-12-29T21:15:15;8.84;77.51
68648;SHT31;55632;51.962;16.116;2022-12-29T21:20:16;8.85;77.51
68648;SHT31;55632;51.962;16.116;2022-12-29T21:25:30;8.84;77.47
68648;SHT31;55632;51.962;16.116;2022-12-29T21:30:37;8.81;77.53
68648;SHT31;55632;51.962;16.116;2022-12-29T21:35:38;8.78;77.65
68648;SHT31;55632;51.962;16.116;2022-12-29T21:40:42;8.74;77.72
68648;SHT31;55632;51.962;16.116;2022-12-29T21:45:48;8.74;77.86
68648;SHT31;55632;51.962;16.116;2022-12-29T21:50:52;8.75;77.87
68648;SHT31;55632;51.962;16.116;2022-12-29T21:56:17;8.75;77.97
68648;SHT31;55632;51.962;16.116;2022-12-29T22:01:18;8.71;78.04
68648;SHT31;55632;51.962;16.116;2022-12-29T22:06:43;8.72;78.08
68648;SHT31;55632;51.962;16.116;2022-12-29T22:12:06;8.72;78.12
68648;SHT31;55632;51.962;16.116;2022-12-29T22:17:25;8.67;78.16
68648;SHT31;55632;51.962;16.116;2022-12-29T22:22:26;8.67;78.25
68648;SHT31;55632;51.962;16.116;2022-12-29T22:27:27;8.60;78.33
68648;SHT31;55632;51.962;16.116;2022-12-29T22:32:31;8.61;78.43
68648;SHT31;55632;51.962;16.116;2022-12-29T22:37:38;8.56;78.52
68648;SHT31;55632;51.962;16.116;2022-12-29T22:42:42;8.50;78.61
68648;SHT31;55632;51.962;16.116;2022-12-29T22:47:43;8.43;78.70
68648;SHT31;55632;51.962;16.116;2022-12-29T22:52:44;8.40;78.75
68648;SHT31;55632;51.962;16.116;2022-12-29T22:57:45;8.32;78.82
68648;SHT31;55632;51.962;16.116;2022-12-29T23:02:46;8.26;78.98
68648;SHT31;55632;51.962;16.116;2022-12-29T23:07:47;8.21;79.19
68648;SHT31;55632;51.962;16.116;2022-12-29T23:12:48;8.15;79.36
68648;SHT31;55632;51.962;16.116;2022-12-29T23:17:51;8.15;79.51
68648;SHT31;55632;51.962;16.116;2022-12-29T23:22:54;8.13;79.71
68648;SHT31;55632;51.962;16.116;2022-12-29T23:27:55;8.13;79.84
68648;SHT31;55632;51.962;16.116;2022-12-29T23:32:56;8.16;79.91
68648;SHT31;55632;51.962;16.116;2022-12-29T23:37:57;8.18;80.08
68648;SHT31;55632;51.962;16.116;2022-12-29T23:42:58;8.26;80.09
68648;SHT31;55632;51.962;16.116;2022-12-29T23:48:01;8.30;80.08
68648;SHT31;55632;51.962;16.116;2022-12-29T23:53:04;8.33;80.05
68648;SHT31;55632;51.962;16.116;2022-12-29T23:58:05;8.37;80.05
